Time;durP1;ratioP1;P1;durP2;ratioP2;P2;SDS_P1;SDS_P2;PMS_P1;PMS_P2;Temp;Humidity;BMP_temperature;BMP_pressure;BME280_temperature;BME280_humidity;BME280_pressure;Samples;Min_cycle;Max_cycle;Signal;HPM_P1;HPM_P2
2023/02/01 03:06:29;;;;;;;11.53;10.90;;;4.60;99.90;;;;;;4924810;29;20199;-79
2023/02/01 03:08:59;;;;;;;11.43;10.77;;;4.60;99.90;;;;;;4926150;29;20220;-79
2023/02/01 03:12:55;;;;;;;11.50;10.80;;;4.60;99.90;;;;;;4928352;29;20216;-77
2023/02/01 03:14:16;;;;;;;11.40;10.80;;;4.60;99.90;;;;;;4926812;29;20759;-78
2023/02/01 03:16:51;;;;;;;11.70;11.00;;;4.60;99.90;;;;;;4924998;29;20219;-79
2023/02/01 03:19:22;;;;;;;11.70;11.00;;;4.60;99.90;;;;;;4920334;29;20199;-78
2023/02/01 03:21:53;;;;;;;11.87;11.07;;;4.60;99.90;;;;;;4926493;29;20227;-79
2023/02/01 03:24:32;;;;;;;11.50;10.90;;;4.50;99.90;;;;;;4921596;29;20683;-79
2023/02/01 03:27:07;;;;;;;11.70;11.00;;;4.60;99.90;;;;;;4920685;29;20256;-77
2023/02/01 03:29:40;;;;;;;11.27;10.67;;;4.60;99.90;;;;;;4920343;29;20263;-78
2023/02/01 03:32:10;;;;;;;11.43;10.83;;;4.60;99.90;;;;;;4925244;29;20231;-78
2023/02/01 03:34:37;;;;;;;11.70;11.00;;;4.60;99.90;;;;;;4923353;29;20506;-79
2023/02/01 03:37:09;;;;;;;11.67;10.97;;;4.50;99.90;;;;;;4924035;29;20741;-79
2023/02/01 03:39:42;;;;;;;11.90;11.20;;;4.60;99.90;;;;;;4925053;29;20282;-79
2023/02/01 03:42:16;;;;;;;11.90;11.20;;;4.60;99.90;;;;;;4927099;29;20267;-82
2023/02/01 03:44:50;;;;;;;11.70;11.00;;;4.60;99.90;;;;;;4924070;29;20228;-78
2023/02/01 03:47:22;;;;;;;12.20;11.40;;;4.60;99.90;;;;;;4923894;29;20657;-78
2023/02/01 03:49:57;;;;;;;11.70;10.90;;;4.60;99.90;;;;;;4923093;29;20224;-78
2023/02/01 03:52:29;;;;;;;11.77;11.07;;;4.60;99.90;;;;;;4925706;29;20247;-80
2023/02/01 03:54:57;;;;;;;11.90;11.20;;;4.60;99.90;;;;;;4924414;29;20239;-82
2023/02/01 03:57:30;;;;;;;11.87;11.07;;;4.60;99.90;;;;;;4928978;29;20196;-83
2023/02/01 04:00:07;;;;;;;12.03;11.30;;;4.50;99.90;;;;;;4919546;29;20201;-81
2023/02/01 04:02:42;;;;;;;11.90;11.20;;;4.50;99.90;;;;;;4913445;29;20231;-83
2023/02/01 04:05:09;;;;;;;11.80;11.07;;;4.60;99.90;;;;;;4917147;29;20200;-83
2023/02/01 04:07:38;;;;;;;12.27;11.50;;;4.60;99.90;;;;;;4913909;29;20633;-82
2023/02/01 04:10:06;;;;;;;12.03;11.30;;;4.60;99.90;;;;;;4915395;29;20285;-83
2023/02/01 04:12:33;;;;;;;11.63;10.93;;;4.60;99.90;;;;;;4922712;29;20314;-83
2023/02/01 04:14:59;;;;;;;12.03;11.33;;;4.60;99.90;;;;;;4925871;29;20207;-83
2023/02/01 04:17:26;;;;;;;11.90;11.20;;;4.50;99.90;;;;;;4920460;29;20755;-83
2023/02/01 04:19:55;;;;;;;11.50;10.80;;;4.60;99.90;;;;;;4929130;29;20230;-85
2023/02/01 04:22:22;;;;;;;12.20;11.30;;;4.60;99.90;;;;;;4923111;29;20723;-83
2023/02/01 04:24:49;;;;;;;12.00;11.30;;;4.60;99.90;;;;;;4921670;29;20207;-83
2023/02/01 04:27:16;;;;;;;11.80;11.10;;;4.60;99.90;;;;;;4925804;29;20211;-83
2023/02/01 04:29:44;;;;;;;11.63;10.97;;;4.50;99.90;;;;;;4920052;29;20506;-83
2023/02/01 04:32:11;;;;;;;12.00;11.27;;;4.60;99.90;;;;;;4924297;29;20638;-83
2023/02/01 04:34:38;;;;;;;11.93;11.23;;;4.50;99.90;;;;;;4923364;29;20204;-83
2023/02/01 04:37:07;;;;;;;11.63;10.93;;;4.50;99.90;;;;;;4923408;29;20210;-82
2023/02/01 04:39:34;;;;;;;12.03;11.23;;;4.50;99.90;;;;;;4924615;29;20207;-78
2023/02/01 04:42:00;;;;;;;12.10;11.30;;;4.50;99.90;;;;;;4924450;29;20310;-78
2023/02/01 04:44:27;;;;;;;12.00;11.20;;;4.50;99.90;;;;;;4913148;29;20203;-77
2023/02/01 04:46:54;;;;;;;11.97;11.27;;;4.50;99.90;;;;;;4921591;29;20571;-78
2023/02/01 04:49:21;;;;;;;11.93;11.23;;;4.50;99.90;;;;;;4927450;29;20258;-77
2023/02/01 04:51:48;;;;;;;12.17;11.40;;;4.50;99.90;;;;;;4924835;29;20243;-78
2023/02/01 04:54:16;;;;;;;12.17;11.37;;;4.50;99.90;;;;;;4925033;29;20472;-79
2023/02/01 04:56:43;;;;;;;12.17;11.47;;;4.50;99.90;;;;;;4924024;29;20213;-78
2023/02/01 04:59:11;;;;;;;11.90;11.20;;;4.50;99.90;;;;;;4924289;29;20203;-78
2023/02/01 05:01:38;;;;;;;13.20;12.40;;;4.50;99.90;;;;;;4922159;29;20227;-79
2023/02/01 05:04:05;;;;;;;12.60;11.80;;;4.50;99.90;;;;;;4926441;29;20664;-78
2023/02/01 05:06:32;;;;;;;12.50;11.70;;;4.50;99.90;;;;;;4919272;29;20218;-78
2023/02/01 05:08:58;;;;;;;13.10;12.10;;;4.50;99.90;;;;;;4927020;29;20245;-78
2023/02/01 05:14:11;;;;;;;12.30;11.60;;;4.50;99.90;;;;;;4919172;29;20231;-78
2023/02/01 05:16:38;;;;;;;12.80;12.00;;;4.50;99.90;;;;;;4922376;29;20255;-78
2023/02/01 05:19:04;;;;;;;12.30;11.50;;;4.50;99.90;;;;;;4922933;29;20199;-78
2023/02/01 05:21:31;;;;;;;12.60;11.80;;;4.50;99.90;;;;;;4921601;29;20261;-79
2023/02/01 05:24:10;;;;;;;12.27;11.53;;;4.50;99.90;;;;;;4922555;29;20259;-78
2023/02/01 05:26:38;;;;;;;13.03;12.23;;;4.50;99.90;;;;;;4915823;29;20207;-78
2023/02/01 05:29:06;;;;;;;12.87;12.10;;;4.50;99.90;;;;;;4921075;29;20251;-79
2023/02/01 05:31:33;;;;;;;12.57;11.80;;;4.50;99.90;;;;;;4923659;29;20220;-79
2023/02/01 05:33:59;;;;;;;12.87;12.17;;;4.50;99.90;;;;;;4923212;29;20215;-78
2023/02/01 05:36:26;;;;;;;12.40;11.70;;;4.50;99.90;;;;;;4919195;29;20196;-79
2023/02/01 05:38:53;;;;;;;12.80;12.10;;;4.50;99.90;;;;;;4926720;29;20548;-78
2023/02/01 05:41:20;;;;;;;12.83;12.03;;;4.50;99.90;;;;;;4919047;29;20228;-78
2023/02/01 05:43:48;;;;;;;12.97;12.20;;;4.50;99.90;;;;;;4920347;29;20212;-78
2023/02/01 05:46:15;;;;;;;12.73;11.93;;;4.50;99.90;;;;;;4928303;29;20204;-78
2023/02/01 05:48:42;;;;;;;12.70;12.00;;;4.50;99.90;;;;;;4920954;29;20192;-78
2023/02/01 05:51:10;;;;;;;12.87;12.07;;;4.50;99.90;;;;;;4926282;29;20663;-79
2023/02/01 05:53:37;;;;;;;12.13;11.43;;;4.60;99.90;;;;;;4925436;29;20231;-78
2023/02/01 05:56:04;;;;;;;12.20;11.50;;;4.50;99.90;;;;;;4929984;29;20211;-78
2023/02/01 05:58:31;;;;;;;12.03;11.33;;;4.60;99.90;;;;;;4923332;29;20226;-79
2023/02/01 06:01:01;;;;;;;12.30;11.63;;;4.60;99.90;;;;;;4925663;29;20231;-78
2023/02/01 06:03:28;;;;;;;12.20;11.50;;;4.60;99.90;;;;;;4913493;29;20207;-79
2023/02/01 06:05:55;;;;;;;12.50;11.70;;;4.60;99.90;;;;;;4927009;29;20231;-79
2023/02/01 06:08:24;;;;;;;12.80;12.10;;;4.60;99.90;;;;;;4928195;29;20661;-78
2023/02/01 06:10:51;;;;;;;12.27;11.60;;;4.70;99.90;;;;;;4927423;29;20231;-78
2023/02/01 06:13:20;;;;;;;12.03;11.33;;;4.70;99.90;;;;;;4928598;29;20251;-78
2023/02/01 06:15:46;;;;;;;12.13;11.37;;;4.70;99.90;;;;;;4925314;29;20617;-78
2023/02/01 06:18:15;;;;;;;12.13;11.30;;;4.70;99.90;;;;;;4928717;29;20301;-78
2023/02/01 06:20:42;;;;;;;11.50;10.90;;;4.70;99.90;;;;;;4922522;29;20209;-78
2023/02/01 06:23:09;;;;;;;11.80;11.10;;;4.70;99.90;;;;;;4927647;29;20207;-78
2023/02/01 06:25:37;;;;;;;11.53;10.83;;;4.70;99.90;;;;;;4924128;29;20203;-79
2023/02/01 06:28:05;;;;;;;12.13;11.33;;;4.70;99.90;;;;;;4921168;29;20303;-78
2023/02/01 06:30:32;;;;;;;12.43;11.73;;;4.70;99.90;;;;;;4924708;29;20222;-78
2023/02/01 06:32:59;;;;;;;11.97;11.27;;;4.70;99.90;;;;;;4924563;29;20196;-78
2023/02/01 06:35:27;;;;;;;11.57;10.90;;;4.70;99.90;;;;;;4926757;29;20632;-79
2023/02/01 06:37:54;;;;;;;11.43;10.77;;;4.80;99.90;;;;;;4926589;29;20228;-79
2023/02/01 06:40:21;;;;;;;11.67;10.97;;;4.80;99.90;;;;;;4925407;29;20267;-79
2023/02/01 06:42:49;;;;;;;12.40;11.60;;;4.80;99.90;;;;;;4926480;29;20228;-78
2023/02/01 06:45:16;;;;;;;13.20;12.40;;;4.80;99.90;;;;;;4927571;29;20215;-79
2023/02/01 06:47:43;;;;;;;11.97;11.27;;;4.80;99.90;;;;;;4925366;29;20211;-78
2023/02/01 06:50:11;;;;;;;12.30;11.50;;;4.70;99.90;;;;;;4920401;29;20232;-79
2023/02/01 06:52:39;;;;;;;12.20;11.50;;;4.80;99.90;;;;;;4929151;29;20279;-78
2023/02/01 06:55:07;;;;;;;11.90;11.20;;;4.70;99.90;;;;;;4929468;29;20211;-81
2023/02/01 06:57:35;;;;;;;12.43;11.57;;;4.70;99.90;;;;;;4929437;29;20242;-79
2023/02/01 07:00:03;;;;;;;12.50;11.70;;;4.60;99.90;;;;;;4935911;29;20199;-76
2023/02/01 07:02:29;;;;;;;12.70;11.90;;;4.60;99.90;;;;;;4930876;29;20238;-77
2023/02/01 07:04:56;;;;;;;12.23;11.43;;;4.60;99.90;;;;;;4929066;29;20655;-79
2023/02/01 07:07:23;;;;;;;12.43;11.57;;;4.60;99.90;;;;;;4923487;29;20195;-78
2023/02/01 07:09:51;;;;;;;12.60;11.90;;;4.50;99.90;;;;;;4923983;29;20227;-77
2023/02/01 07:12:19;;;;;;;12.57;11.87;;;4.50;99.90;;;;;;4924820;29;20298;-78
2023/02/01 07:14:46;;;;;;;12.03;11.33;;;4.50;99.90;;;;;;4924432;29;20208;-78
2023/02/01 07:17:13;;;;;;;12.87;11.97;;;4.50;99.90;;;;;;4926827;29;20223;-76
2023/02/01 07:19:39;;;;;;;12.20;11.40;;;4.50;99.90;;;;;;4923830;29;20263;-78
2023/02/01 07:22:06;;;;;;;11.97;11.13;;;4.50;99.90;;;;;;4928063;29;20222;-77
2023/02/01 07:24:34;;;;;;;11.83;10.93;;;4.50;99.90;;;;;;4921277;29;20195;-77
2023/02/01 07:27:02;;;;;;;11.93;11.07;;;4.50;99.90;;;;;;4927697;29;20266;-78
2023/02/01 07:29:29;;;;;;;11.80;11.00;;;4.50;99.90;;;;;;4934684;29;20687;-78
2023/02/01 07:31:56;;;;;;;11.57;10.87;;;4.50;99.90;;;;;;4931128;29;20219;-77
2023/02/01 07:34:23;;;;;;;12.00;11.30;;;4.60;99.90;;;;;;4928060;29;20200;-77
2023/02/01 07:36:50;;;;;;;12.67;11.93;;;4.60;99.90;;;;;;4922893;29;20235;-78
2023/02/01 07:39:16;;;;;;;12.00;11.30;;;4.60;99.90;;;;;;4924855;29;20686;-77
2023/02/01 07:41:43;;;;;;;16.00;14.53;;;4.70;99.90;;;;;;4923451;29;20645;-77
2023/02/01 07:44:15;;;;;;;13.97;13.07;;;4.70;99.90;;;;;;4923730;29;20207;-77
2023/02/01 07:46:43;;;;;;;12.90;12.10;;;4.70;99.90;;;;;;4925359;29;20204;-77
2023/02/01 07:49:10;;;;;;;12.67;11.90;;;4.70;99.90;;;;;;4925915;29;20235;-77
2023/02/01 07:51:36;;;;;;;12.63;11.87;;;4.70;99.90;;;;;;4921844;29;20230;-77
2023/02/01 07:54:03;;;;;;;12.27;11.47;;;4.70;99.90;;;;;;4928001;29;20235;-77
2023/02/01 07:56:30;;;;;;;11.50;10.90;;;4.70;99.90;;;;;;4923788;29;20195;-78
2023/02/01 07:58:59;;;;;;;11.73;10.97;;;4.70;99.90;;;;;;4922547;29;20259;-78
2023/02/01 08:01:28;;;;;;;11.87;11.17;;;4.80;99.90;;;;;;4924173;29;20243;-78
2023/02/01 08:03:56;;;;;;;12.67;11.90;;;4.80;99.90;;;;;;4923218;29;20196;-78
2023/02/01 08:06:24;;;;;;;12.90;12.10;;;4.90;99.90;;;;;;4926711;29;20612;-77
2023/02/01 08:08:52;;;;;;;12.43;11.63;;;5.00;99.90;;;;;;4923852;29;20200;-78
2023/02/01 08:11:20;;;;;;;12.30;11.60;;;5.00;99.90;;;;;;4925055;29;20708;-76
2023/02/01 08:13:47;;;;;;;12.30;11.60;;;5.10;99.90;;;;;;4921262;29;20204;-77
2023/02/01 08:16:16;;;;;;;12.37;11.67;;;5.10;99.90;;;;;;4924306;29;20318;-77
2023/02/01 08:18:45;;;;;;;11.60;10.90;;;5.20;99.90;;;;;;4924605;29;20262;-78
2023/02/01 08:21:13;;;;;;;12.30;11.60;;;5.20;99.90;;;;;;4919991;29;20217;-77
2023/02/01 08:23:42;;;;;;;12.50;11.70;;;5.20;99.90;;;;;;4927206;29;20200;-77
2023/02/01 08:26:11;;;;;;;12.77;11.90;;;5.20;99.90;;;;;;4922555;29;20280;-77
2023/02/01 08:28:38;;;;;;;12.23;11.53;;;5.20;99.90;;;;;;4924873;29;20204;-78
2023/02/01 08:31:06;;;;;;;12.40;11.60;;;5.30;99.90;;;;;;4922409;29;20239;-78
2023/02/01 08:33:34;;;;;;;12.30;11.60;;;5.30;99.90;;;;;;4923085;29;20200;-78
2023/02/01 08:36:03;;;;;;;12.27;11.53;;;5.30;99.90;;;;;;4923040;29;20200;-77
2023/02/01 08:38:30;;;;;;;12.37;11.37;;;5.40;99.90;;;;;;4922807;29;20208;-77
2023/02/01 08:40:57;;;;;;;12.27;11.47;;;5.40;99.90;;;;;;4923500;29;20246;-78
2023/02/01 08:43:24;;;;;;;11.63;10.93;;;5.40;99.90;;;;;;4922879;29;20213;-78
2023/02/01 08:45:54;;;;;;;11.70;11.00;;;5.50;99.90;;;;;;4925622;29;20203;-78
2023/02/01 08:48:21;;;;;;;12.00;11.20;;;5.50;99.90;;;;;;4920065;29;20259;-79
2023/02/01 08:50:48;;;;;;;11.33;10.73;;;5.50;99.90;;;;;;4920817;29;20224;-77
2023/02/01 08:53:16;;;;;;;11.60;10.90;;;5.60;99.90;;;;;;4924834;29;20225;-77
2023/02/01 08:55:43;;;;;;;11.67;10.90;;;5.70;99.90;;;;;;4923988;29;20213;-77
2023/02/01 08:58:10;;;;;;;11.80;11.10;;;5.80;99.90;;;;;;4923472;29;20233;-78
2023/02/01 09:00:36;;;;;;;12.10;11.30;;;6.00;99.90;;;;;;4919488;29;20264;-78
2023/02/01 09:03:03;;;;;;;11.40;10.70;;;6.20;99.90;;;;;;4925281;29;20264;-76
2023/02/01 09:05:30;;;;;;;11.67;10.97;;;6.20;99.90;;;;;;4919513;29;20201;-78
2023/02/01 09:07:57;;;;;;;11.70;10.90;;;6.10;99.90;;;;;;4925768;29;20208;-78
2023/02/01 09:10:26;;;;;;;11.83;11.00;;;6.10;99.90;;;;;;4920031;29;20212;-77
2023/02/01 09:12:52;;;;;;;11.10;10.50;;;6.00;99.90;;;;;;4920791;29;20213;-78
2023/02/01 09:15:19;;;;;;;11.30;10.70;;;5.90;99.90;;;;;;4926998;29;20206;-78
2023/02/01 09:17:46;;;;;;;11.60;10.90;;;5.80;99.90;;;;;;4923110;29;20206;-77
2023/02/01 09:20:13;;;;;;;11.50;10.80;;;5.80;99.90;;;;;;4925939;29;20288;-78
2023/02/01 09:22:40;;;;;;;11.30;10.50;;;5.70;99.90;;;;;;4919887;29;20277;-78
2023/02/01 09:25:08;;;;;;;11.63;10.93;;;5.60;99.90;;;;;;4926328;29;20204;-77
2023/02/01 09:27:37;;;;;;;11.40;10.60;;;5.60;99.90;;;;;;4925877;29;20200;-78
2023/02/01 09:30:05;;;;;;;11.67;10.97;;;5.50;99.90;;;;;;4927445;29;20228;-77
2023/02/01 09:32:32;;;;;;;11.53;10.83;;;5.50;99.90;;;;;;4922751;29;20327;-77
2023/02/01 09:34:58;;;;;;;11.63;10.90;;;5.40;99.90;;;;;;4930637;29;20605;-78
2023/02/01 09:37:25;;;;;;;12.13;11.33;;;5.40;99.90;;;;;;4926648;29;20200;-81
2023/02/01 09:39:52;;;;;;;11.93;11.20;;;5.40;99.90;;;;;;4925863;29;20203;-80
2023/02/01 09:42:37;;;;;;;12.27;11.47;;;5.40;99.90;;;;;;4926940;29;20693;-82
2023/02/01 09:45:17;;;;;;;11.90;11.10;;;5.40;99.90;;;;;;4927384;29;20213;-81
2023/02/01 09:47:49;;;;;;;12.10;11.20;;;5.40;99.90;;;;;;4927147;29;20196;-81
2023/02/01 09:50:20;;;;;;;12.00;11.10;;;5.50;99.90;;;;;;4926700;29;20612;-78
2023/02/01 09:52:53;;;;;;;11.70;10.67;;;5.50;99.90;;;;;;4925280;29;20328;-77
2023/02/01 09:55:25;;;;;;;12.77;11.90;;;5.50;99.90;;;;;;4922686;29;20205;-78
2023/02/01 09:57:56;;;;;;;12.27;11.23;;;5.60;99.90;;;;;;4919364;29;20205;-77
2023/02/01 10:00:30;;;;;;;12.17;11.27;;;5.70;99.90;;;;;;4924963;29;20204;-77
2023/02/01 10:02:57;;;;;;;11.53;10.63;;;5.70;99.90;;;;;;4930826;29;20207;-77
2023/02/01 10:05:42;;;;;;;12.03;11.07;;;5.80;99.90;;;;;;4928253;29;20213;-78
2023/02/01 10:08:16;;;;;;;12.50;11.47;;;5.90;99.90;;;;;;4907746;29;20826;-78
2023/02/01 10:10:47;;;;;;;12.17;11.27;;;6.00;99.90;;;;;;4929550;29;20209;-79
2023/02/01 10:13:34;;;;;;;11.97;11.17;;;6.00;99.90;;;;;;4918828;29;20257;-77
2023/02/01 10:16:14;;;;;;;12.20;11.40;;;6.10;99.90;;;;;;4919690;29;20616;-78
2023/02/01 10:19:05;;;;;;;12.57;11.60;;;6.10;99.90;;;;;;4922275;29;20671;-77
2023/02/01 10:21:43;;;;;;;12.10;11.30;;;6.10;99.90;;;;;;4918099;29;20282;-78
2023/02/01 10:24:23;;;;;;;12.67;11.73;;;6.20;99.90;;;;;;4921496;29;20617;-78
2023/02/01 10:26:56;;;;;;;12.70;11.50;;;6.10;99.90;;;;;;4925971;29;20731;-83
2023/02/01 10:29:27;;;;;;;12.77;11.67;;;6.10;99.90;;;;;;4928056;29;20205;-83
2023/02/01 10:31:56;;;;;;;12.40;11.47;;;6.10;99.90;;;;;;4920960;29;20221;-81
2023/02/01 10:34:27;;;;;;;12.17;11.27;;;6.00;99.90;;;;;;4928294;29;20210;-81
2023/02/01 10:36:56;;;;;;;12.83;11.87;;;6.00;99.90;;;;;;4925274;29;20448;-83
2023/02/01 10:39:24;;;;;;;12.67;11.80;;;6.00;99.90;;;;;;4925921;29;20206;-81
2023/02/01 10:41:51;;;;;;;12.60;11.50;;;6.00;99.90;;;;;;4926379;29;20706;-81
2023/02/01 10:44:22;;;;;;;12.70;11.67;;;6.00;99.90;;;;;;4922031;29;20229;-82
2023/02/01 10:46:49;;;;;;;14.10;12.70;;;6.00;99.90;;;;;;4922094;29;20268;-81
2023/02/01 10:49:22;;;;;;;13.30;12.23;;;6.10;99.90;;;;;;4926743;29;20201;-80
2023/02/01 10:51:53;;;;;;;12.27;11.47;;;6.10;99.90;;;;;;4923634;29;20713;-80
2023/02/01 10:54:22;;;;;;;12.30;11.27;;;6.10;99.90;;;;;;4927003;29;20770;-81
2023/02/01 10:56:49;;;;;;;12.60;11.40;;;6.10;99.90;;;;;;4927487;29;20642;-79
2023/02/01 10:59:18;;;;;;;12.83;11.93;;;6.10;99.90;;;;;;4928057;29;20261;-80
2023/02/01 11:01:47;;;;;;;12.50;11.40;;;6.10;99.90;;;;;;4919071;29;20650;-80
2023/02/01 11:04:16;;;;;;;12.00;11.10;;;6.10;99.90;;;;;;4928286;29;20206;-80
2023/02/01 11:06:46;;;;;;;12.53;11.63;;;6.20;99.90;;;;;;4924023;29;20687;-80
2023/02/01 11:09:20;;;;;;;12.77;11.63;;;6.10;99.90;;;;;;4921822;29;20205;-80
2023/02/01 11:11:59;;;;;;;12.43;11.53;;;6.10;99.90;;;;;;4924828;29;20698;-80
2023/02/01 11:14:36;;;;;;;14.20;12.93;;;6.10;99.90;;;;;;4920699;29;20201;-80
2023/02/01 11:17:23;;;;;;;14.67;13.20;;;6.10;99.90;;;;;;4928324;29;20687;-80
2023/02/01 11:19:58;;;;;;;17.60;15.83;;;6.10;99.90;;;;;;4921282;29;20265;-80
2023/02/01 11:22:29;;;;;;;17.63;15.83;;;6.10;99.90;;;;;;4924645;29;20652;-80
2023/02/01 11:24:56;;;;;;;14.00;12.63;;;6.10;99.90;;;;;;4924401;29;20267;-80
2023/02/01 11:27:25;;;;;;;13.00;11.50;;;6.00;99.90;;;;;;4927319;29;20245;-80
2023/02/01 11:29:54;;;;;;;12.33;11.03;;;6.00;99.90;;;;;;4923627;29;20565;-80
2023/02/01 11:32:23;;;;;;;12.80;11.53;;;6.00;99.90;;;;;;4932293;29;20705;-79
2023/02/01 11:34:54;;;;;;;12.67;11.57;;;6.00;99.90;;;;;;4925038;29;20224;-81
2023/02/01 11:37:24;;;;;;;12.40;11.30;;;6.00;99.90;;;;;;4926842;29;20578;-81
2023/02/01 11:39:58;;;;;;;13.27;12.13;;;6.00;99.90;;;;;;4920277;29;20288;-81
2023/02/01 11:42:26;;;;;;;12.00;11.10;;;6.00;99.90;;;;;;4924430;29;20217;-81
2023/02/01 11:45:18;;;;;;;13.00;11.90;;;6.00;99.90;;;;;;4923914;29;20205;-81
2023/02/01 11:47:46;;;;;;;11.93;11.03;;;6.00;99.90;;;;;;4923280;29;20217;-81
2023/02/01 11:50:17;;;;;;;15.07;12.00;;;6.10;99.90;;;;;;4929458;29;20232;-81
2023/02/01 11:53:06;;;;;;;12.47;11.40;;;6.10;99.90;;;;;;4924979;29;20284;-81
2023/02/01 11:55:49;;;;;;;12.30;11.50;;;6.10;99.90;;;;;;4923424;29;20207;-81
2023/02/01 11:58:32;;;;;;;12.77;11.77;;;6.10;99.90;;;;;;4927042;29;20276;-81
2023/02/01 12:01:19;;;;;;;12.70;11.77;;;6.20;99.90;;;;;;4924414;29;20227;-83
2023/02/01 12:04:33;;;;;;;12.80;11.50;;;6.30;99.90;;;;;;4915705;29;20213;-82
2023/02/01 12:07:06;;;;;;;12.93;11.77;;;6.30;99.90;;;;;;4862487;29;20207;-81
2023/02/01 12:09:49;;;;;;;13.87;12.53;;;6.30;99.90;;;;;;4904893;29;20589;-81
2023/02/01 12:12:23;;;;;;;12.57;11.67;;;6.30;99.90;;;;;;4924588;29;20225;-81
2023/02/01 12:15:11;;;;;;;13.07;12.07;;;6.40;99.90;;;;;;4925157;29;20273;-82
2023/02/01 12:18:02;;;;;;;12.07;11.17;;;6.50;99.90;;;;;;4922099;29;20220;-81
2023/02/01 12:20:51;;;;;;;12.20;11.10;;;6.50;99.90;;;;;;4920704;29;20261;-77
2023/02/01 12:23:31;;;;;;;11.53;10.63;;;6.50;99.90;;;;;;4924643;29;20543;-77
2023/02/01 12:26:09;;;;;;;12.83;11.60;;;6.50;99.90;;;;;;4920433;29;20209;-77
2023/02/01 12:29:13;;;;;;;12.33;11.23;;;6.40;99.90;;;;;;4921494;29;20265;-78
2023/02/01 12:32:10;;;;;;;12.17;11.17;;;6.40;99.90;;;;;;4913547;29;20753;-77
2023/02/01 12:34:52;;;;;;;12.23;11.03;;;6.30;99.90;;;;;;4917927;29;20612;-78
2023/02/01 12:37:29;;;;;;;13.00;11.40;;;6.30;99.90;;;;;;4925888;29;20188;-77
2023/02/01 12:40:06;;;;;;;12.50;11.47;;;6.30;99.90;;;;;;4923154;29;20205;-78
2023/02/01 12:42:38;;;;;;;11.90;10.93;;;6.30;99.90;;;;;;4915495;29;20217;-77
2023/02/01 12:45:15;;;;;;;11.97;10.87;;;6.20;99.90;;;;;;4923455;29;20563;-77
2023/02/01 12:47:48;;;;;;;11.37;10.50;;;6.20;99.90;;;;;;4924896;29;20671;-77
2023/02/01 12:50:22;;;;;;;12.23;11.00;;;6.20;99.90;;;;;;4923642;29;20252;-78
2023/02/01 12:52:50;;;;;;;11.70;10.60;;;6.10;99.90;;;;;;4920565;29;20722;-77
2023/02/01 12:55:22;;;;;;;12.70;11.60;;;6.10;99.90;;;;;;4926638;29;20265;-77
2023/02/01 12:57:53;;;;;;;12.50;11.50;;;6.10;99.90;;;;;;4928244;29;20390;-77
2023/02/01 13:00:31;;;;;;;12.37;11.43;;;6.10;99.90;;;;;;4921794;29;20267;-77
2023/02/01 13:03:03;;;;;;;12.80;11.90;;;6.10;99.90;;;;;;4923397;29;20280;-77
2023/02/01 13:05:35;;;;;;;12.97;11.67;;;6.10;99.90;;;;;;4917620;29;20633;-77
2023/02/01 13:08:07;;;;;;;12.50;11.53;;;6.10;99.90;;;;;;4924987;29;20642;-77
2023/02/01 13:10:37;;;;;;;12.17;11.17;;;6.10;99.90;;;;;;4925236;29;20213;-77
2023/02/01 13:13:12;;;;;;;13.27;11.83;;;6.10;99.90;;;;;;4925637;29;20217;-77
2023/02/01 13:15:45;;;;;;;12.43;11.50;;;6.00;99.90;;;;;;4928453;29;20616;-80
2023/02/01 13:18:19;;;;;;;12.53;11.43;;;6.00;99.90;;;;;;4927675;29;20633;-77
2023/02/01 13:20:53;;;;;;;12.67;11.40;;;6.00;99.90;;;;;;4921056;29;20249;-77
2023/02/01 13:23:26;;;;;;;12.30;11.20;;;6.00;99.90;;;;;;4926919;29;20732;-77
2023/02/01 13:25:54;;;;;;;11.40;10.60;;;6.00;99.90;;;;;;4926929;29;20209;-77
2023/02/01 13:28:27;;;;;;;12.33;11.23;;;5.90;99.90;;;;;;4928233;29;20907;-77
2023/02/01 13:31:15;;;;;;;11.60;10.70;;;6.00;99.90;;;;;;4926601;29;20262;-77
2023/02/01 13:33:59;;;;;;;12.23;11.07;;;5.90;99.90;;;;;;4928766;29;20221;-77
2023/02/01 13:36:45;;;;;;;12.57;11.37;;;5.90;99.90;;;;;;4921886;29;20244;-77
2023/02/01 13:39:53;;;;;;;12.30;11.20;;;5.90;99.90;;;;;;4922165;29;20571;-77
2023/02/01 13:42:24;;;;;;;12.43;11.43;;;5.90;99.90;;;;;;4926184;29;20216;-77
2023/02/01 13:44:53;;;;;;;11.30;10.40;;;5.90;99.90;;;;;;4927324;29;20484;-77
2023/02/01 13:47:27;;;;;;;11.50;10.63;;;5.90;99.90;;;;;;4921463;29;20208;-77
2023/02/01 13:49:56;;;;;;;11.83;10.97;;;5.90;99.90;;;;;;4929413;29;20251;-77
2023/02/01 13:52:33;;;;;;;12.30;11.20;;;5.80;99.90;;;;;;4921139;29;20216;-77
2023/02/01 13:55:25;;;;;;;12.17;11.17;;;5.80;99.90;;;;;;4921409;29;20266;-77
2023/02/01 13:58:00;;;;;;;11.47;10.57;;;5.90;99.90;;;;;;4937463;29;20209;-77
2023/02/01 14:00:30;;;;;;;12.47;11.57;;;5.90;99.90;;;;;;4927591;29;20204;-77
2023/02/01 14:03:15;;;;;;;12.53;11.23;;;5.90;99.90;;;;;;4935770;29;20276;-77
2023/02/01 14:06:24;;;;;;;13.47;12.10;;;6.00;99.90;;;;;;4921050;29;20204;-77
2023/02/01 14:09:19;;;;;;;12.20;11.23;;;6.00;99.90;;;;;;4909532;29;20699;-80
2023/02/01 14:11:51;;;;;;;12.77;11.77;;;6.00;99.90;;;;;;4929825;29;20641;-81
2023/02/01 14:14:51;;;;;;;12.80;11.70;;;6.00;99.90;;;;;;4929149;29;20229;-81
2023/02/01 14:17:33;;;;;;;12.43;11.33;;;6.00;99.90;;;;;;4938229;29;20207;-81
2023/02/01 14:20:45;;;;;;;12.07;11.00;;;5.90;99.90;;;;;;4923403;29;20302;-79
2023/02/01 14:23:24;;;;;;;11.40;10.50;;;5.90;99.90;;;;;;4918216;29;20197;-78
2023/02/01 14:26:19;;;;;;;12.80;11.53;;;5.90;99.90;;;;;;4928994;29;20271;-81
2023/02/01 14:28:52;;;;;;;13.40;12.10;;;5.80;99.90;;;;;;4923728;29;20208;-82
2023/02/01 14:31:36;;;;;;;12.33;11.27;;;5.80;99.90;;;;;;4913010;29;20228;-80
2023/02/01 14:34:11;;;;;;;12.97;11.77;;;5.80;99.90;;;;;;4928663;29;20232;-79
2023/02/01 14:36:46;;;;;;;12.13;11.17;;;5.80;99.90;;;;;;4930463;29;20209;-79
2023/02/01 14:39:27;;;;;;;12.00;10.90;;;5.80;99.90;;;;;;4931193;29;20284;-79
2023/02/01 14:41:58;;;;;;;12.10;11.07;;;5.80;99.90;;;;;;4926628;29;20225;-81
2023/02/01 14:44:28;;;;;;;12.67;11.53;;;5.90;99.90;;;;;;4917082;29;20201;-79
2023/02/01 14:47:32;;;;;;;12.80;11.60;;;5.90;99.90;;;;;;4928622;29;20208;-81
2023/02/01 14:50:35;;;;;;;13.17;11.67;;;5.90;99.90;;;;;;4921976;29;20224;-80
2023/02/01 14:53:23;;;;;;;13.40;11.23;;;5.90;99.90;;;;;;4922861;29;20223;-79
2023/02/01 14:55:54;;;;;;;13.00;11.67;;;5.90;99.90;;;;;;4926294;29;20211;-81
2023/02/01 14:58:36;;;;;;;12.50;11.50;;;5.90;99.90;;;;;;4927222;29;20211;-81
2023/02/01 15:01:05;;;;;;;13.73;11.83;;;5.80;99.90;;;;;;4920934;29;20237;-81
2023/02/01 15:03:44;;;;;;;19.47;13.23;;;5.80;99.90;;;;;;4921326;29;20221;-81
2023/02/01 15:06:24;;;;;;;23.70;17.60;;;5.80;99.90;;;;;;4916593;29;20212;-80
2023/02/01 15:08:55;;;;;;;23.00;16.67;;;5.80;99.90;;;;;;4926662;29;20205;-80
2023/02/01 15:11:23;;;;;;;20.47;14.53;;;5.80;99.90;;;;;;4925724;29;20367;-80
2023/02/01 15:13:53;;;;;;;13.07;11.87;;;5.70;99.90;;;;;;4933490;29;20217;-81
2023/02/01 15:16:25;;;;;;;14.90;11.50;;;5.70;99.90;;;;;;4929889;29;20204;-81
2023/02/01 15:19:07;;;;;;;12.23;11.20;;;5.70;99.90;;;;;;4922836;29;20207;-80
2023/02/01 15:21:43;;;;;;;12.23;11.20;;;5.70;99.90;;;;;;4922458;29;20226;-80
2023/02/01 15:24:15;;;;;;;11.87;10.77;;;5.80;99.90;;;;;;4928646;29;20205;-77
2023/02/01 15:26:43;;;;;;;12.87;11.70;;;5.80;99.90;;;;;;4930322;29;20224;-78
2023/02/01 15:29:12;;;;;;;13.20;11.20;;;5.80;99.90;;;;;;4926752;29;20208;-77
2023/02/01 15:31:42;;;;;;;12.37;11.17;;;5.80;99.90;;;;;;4932864;29;20227;-81
2023/02/01 15:34:09;;;;;;;12.07;11.00;;;5.80;99.90;;;;;;4925667;29;20275;-80
2023/02/01 15:36:37;;;;;;;14.97;11.33;;;5.80;99.90;;;;;;4928761;29;20197;-80
2023/02/01 15:39:19;;;;;;;12.80;11.47;;;5.80;99.90;;;;;;4927672;29;20200;-80
2023/02/01 15:41:54;;;;;;;11.83;10.93;;;5.80;99.90;;;;;;4928436;29;20247;-80
2023/02/01 15:44:29;;;;;;;12.77;11.57;;;5.80;99.90;;;;;;4927711;29;20193;-81
2023/02/01 15:47:01;;;;;;;11.87;11.00;;;5.80;99.90;;;;;;4929402;29;20263;-79
2023/02/01 15:49:31;;;;;;;13.47;12.13;;;5.70;99.90;;;;;;4919063;29;20256;-80
2023/02/01 15:52:00;;;;;;;12.30;11.30;;;5.70;99.90;;;;;;4928293;29;20224;-81
2023/02/01 15:54:30;;;;;;;12.87;11.43;;;5.70;99.90;;;;;;4927882;29;20248;-77
2023/02/01 15:57:01;;;;;;;12.30;11.20;;;5.70;99.90;;;;;;4927323;29;20215;-77
2023/02/01 15:59:33;;;;;;;12.50;11.40;;;5.70;99.90;;;;;;4924979;29;20203;-76
2023/02/01 16:02:00;;;;;;;14.03;12.50;;;5.70;99.90;;;;;;4915191;29;20244;-77
2023/02/01 16:04:29;;;;;;;12.33;11.23;;;5.70;99.90;;;;;;4917180;29;20527;-76
2023/02/01 16:06:59;;;;;;;12.03;11.10;;;5.60;99.90;;;;;;4905351;29;20666;-77
2023/02/01 16:09:38;;;;;;;12.07;11.03;;;5.60;99.90;;;;;;4909490;29;20207;-77